Time;durP1;ratioP1;P1;durP2;ratioP2;P2;SDS_P1;SDS_P2;PMS_P1;PMS_P2;Temp;Humidity;BMP_temperature;BMP_pressure;BME280_temperature;BME280_humidity;BME280_pressure;Samples;Min_cycle;Max_cycle;Signal;HPM_P1;HPM_P2
2021/12/10 00:00:29;;;;;;;;;2.25;0.00;;;;;7.19;100.00;99095.72;5015384;28;45336;-73
2021/12/10 00:02:55;;;;;;;;;0.25;0.25;;;;;7.20;100.00;99083.72;4955925;28;45518;-73
2021/12/10 00:05:27;;;;;;;;;0.00;0.00;;;;;7.13;100.00;99077.50;5015377;28;45296;-73
2021/12/10 00:07:55;;;;;;;;;1.00;1.00;;;;;7.04;100.00;99065.25;5018322;28;45443;-74
2021/12/10 00:10:36;;;;;;;;;0.75;0.75;;;;;7.02;100.00;99040.31;5019028;28;45375;-73
2021/12/10 00:13:03;;;;;;;;;0.00;0.00;;;;;6.89;100.00;99033.91;5019341;28;45372;-73
2021/12/10 00:15:31;;;;;;;;;0.00;0.00;;;;;6.90;100.00;99043.38;5018765;28;45389;-73
2021/12/10 00:17:58;;;;;;;;;0.25;0.25;;;;;6.84;100.00;99023.47;5018574;28;45896;-73
2021/12/10 00:20:27;;;;;;;;;1.00;1.00;;;;;6.85;100.00;99019.22;5018965;28;45307;-73
2021/12/10 00:23:01;;;;;;;;;2.00;1.00;;;;;6.83;100.00;98993.44;5018804;28;45316;-73
2021/12/10 00:25:37;;;;;;;;;0.00;0.00;;;;;6.82;100.00;98966.84;5018991;28;46269;-73
2021/12/10 00:28:15;;;;;;;;;1.50;0.00;;;;;6.81;100.00;98959.97;5018504;28;45757;-72
2021/12/10 00:30:56;;;;;;;;;0.00;0.00;;;;;6.78;100.00;98923.84;5018847;28;45328;-72
2021/12/10 00:33:25;;;;;;;;;0.50;0.50;;;;;6.73;100.00;98934.81;5019009;28;45345;-73
2021/12/10 00:35:53;;;;;;;;;0.00;0.00;;;;;6.78;100.00;98959.84;5018121;28;45456;-73
2021/12/10 00:38:20;;;;;;;;;0.00;0.00;;;;;6.79;100.00;98978.75;5018540;28;45186;-72
2021/12/10 00:40:46;;;;;;;;;0.00;0.00;;;;;6.81;100.00;98987.34;5018901;28;45435;-72
2021/12/10 00:43:11;;;;;;;;;1.50;0.00;;;;;6.90;100.00;98976.47;5018918;28;45554;-72
2021/12/10 00:45:38;;;;;;;;;0.75;0.00;;;;;6.98;100.00;98962.13;5018506;28;45358;-72
2021/12/10 00:48:04;;;;;;;;;0.00;0.00;;;;;6.96;100.00;98923.50;5018047;28;45808;-73
2021/12/10 00:50:45;;;;;;;;;0.75;0.00;;;;;7.01;100.00;98927.94;5018578;28;45305;-72
2021/12/10 00:53:11;;;;;;;;;0.00;0.00;;;;;7.00;100.00;98924.47;5018644;28;45304;-72
2021/12/10 00:55:37;;;;;;;;;0.00;0.00;;;;;6.97;100.00;98914.97;5018012;28;45358;-72
2021/12/10 00:58:04;;;;;;;;;0.00;0.00;;;;;6.99;100.00;98909.84;5018034;28;45298;-72
2021/12/10 01:00:34;;;;;;;;;0.00;0.00;;;;;7.04;100.00;98867.13;5018386;28;45369;-73
2021/12/10 01:03:02;;;;;;;;;0.00;0.00;;;;;6.99;100.00;98858.41;5018414;28;45320;-72
2021/12/10 01:05:28;;;;;;;;;0.50;0.50;;;;;7.02;100.00;98850.78;5018122;28;46056;-72
2021/12/10 01:07:53;;;;;;;;;0.50;0.50;;;;;6.97;100.00;98848.06;5016638;28;45798;-73
2021/12/10 01:10:25;;;;;;;;;0.00;0.00;;;;;6.90;100.00;98833.31;5018193;28;45383;-72
2021/12/10 01:12:53;;;;;;;;;0.00;0.00;;;;;6.90;100.00;98847.84;5018119;28;45352;-72
2021/12/10 01:26:41;;;;;;;;;0.00;0.00;;;;;6.67;100.00;98809.50;5017708;28;45308;-74
2021/12/10 01:29:09;;;;;;;;;0.00;0.00;;;;;6.68;100.00;98782.13;5017843;28;45686;-74
2021/12/10 01:31:36;;;;;;;;;0.00;0.00;;;;;6.70;100.00;98799.31;5017995;28;45391;-74
2021/12/10 01:34:03;;;;;;;;;0.00;0.00;;;;;6.75;100.00;98784.00;5016465;28;45467;-74
2021/12/10 01:36:28;;;;;;;;;0.00;0.00;;;;;6.72;100.00;98766.81;5017426;28;45280;-74
2021/12/10 01:38:55;;;;;;;;;1.00;0.00;;;;;6.76;100.00;98793.47;5017371;28;45340;-74
2021/12/10 01:41:25;;;;;;;;;0.00;0.00;;;;;6.74;100.00;98779.69;5017832;28;45328;-74
2021/12/10 01:43:52;;;;;;;;;0.00;0.00;;;;;6.79;100.00;98773.84;5017613;28;45387;-74
2021/12/10 01:46:26;;;;;;;;;0.00;0.00;;;;;6.82;100.00;98786.78;4999538;28;47176;-74
2021/12/10 01:48:59;;;;;;;;;0.00;0.00;;;;;6.88;100.00;98762.94;5017056;28;45367;-74
2021/12/10 01:51:31;;;;;;;;;0.00;0.00;;;;;6.94;100.00;98762.22;5017717;28;45395;-73
2021/12/10 01:54:02;;;;;;;;;0.00;0.00;;;;;6.97;100.00;98770.00;5017729;28;45337;-75
2021/12/10 01:56:31;;;;;;;;;0.00;0.00;;;;;7.00;100.00;98790.69;5017114;28;46055;-75
2021/12/10 01:58:58;;;;;;;;;0.00;0.00;;;;;7.08;100.00;98796.88;4999451;28;46157;-75
2021/12/10 02:01:46;;;;;;;;;0.00;0.00;;;;;7.15;100.00;98791.91;5017516;28;45339;-74
2021/12/10 02:04:16;;;;;;;;;0.00;0.00;;;;;7.20;100.00;98778.34;5018037;28;45308;-75
2021/12/10 02:06:42;;;;;;;;;0.00;0.00;;;;;7.26;100.00;98770.75;5017434;28;45261;-75
2021/12/10 02:09:09;;;;;;;;;0.00;0.00;;;;;7.36;100.00;98771.88;5016958;28;45364;-75
2021/12/10 02:11:36;;;;;;;;;0.00;0.00;;;;;7.38;100.00;98752.19;5017305;28;45522;-75
2021/12/10 02:14:03;;;;;;;;;1.25;0.00;;;;;7.44;100.00;98744.59;5017284;28;45414;-75
2021/12/10 02:16:29;;;;;;;;;1.00;0.00;;;;;7.54;100.00;98744.81;5016900;28;46035;-75
2021/12/10 02:18:55;;;;;;;;;0.00;0.00;;;;;7.55;100.00;98750.03;5016704;28;45756;-74
2021/12/10 02:21:23;;;;;;;;;0.00;0.00;;;;;7.61;100.00;98750.97;5015892;28;45331;-75
2021/12/10 02:23:56;;;;;;;;;1.00;0.00;;;;;7.61;100.00;98741.56;5017115;28;45534;-75
2021/12/10 02:26:25;;;;;;;;;0.00;0.00;;;;;7.63;100.00;98736.44;4998937;28;47777;-74
2021/12/10 02:28:51;;;;;;;;;0.00;0.00;;;;;7.54;100.00;98707.06;5016424;28;45710;-74
2021/12/10 02:31:17;;;;;;;;;0.00;0.00;;;;;7.65;100.00;98724.47;5017064;28;45337;-74
2021/12/10 02:33:43;;;;;;;;;0.00;0.00;;;;;7.70;100.00;98726.31;5017460;28;45505;-72
2021/12/10 02:36:11;;;;;;;;;0.00;0.00;;;;;7.74;100.00;98717.81;5016350;28;45844;-74
2021/12/10 02:38:44;;;;;;;;;0.00;0.00;;;;;7.82;100.00;98723.13;5016727;28;45853;-75
2021/12/10 02:41:10;;;;;;;;;0.00;0.00;;;;;7.82;100.00;98711.97;5016630;28;45452;-74
2021/12/10 02:43:36;;;;;;;;;0.00;0.00;;;;;7.75;100.00;98678.34;5017070;28;45355;-75
2021/12/10 02:46:03;;;;;;;;;0.00;0.00;;;;;7.83;100.00;98703.41;5016377;28;46214;-75
2021/12/10 02:48:29;;;;;;;;;0.00;0.00;;;;;7.89;100.00;98699.22;5016771;28;45951;-73
2021/12/10 02:50:56;;;;;;;;;0.00;0.00;;;;;7.88;100.00;98694.06;5016392;28;45261;-72
2021/12/10 02:53:24;;;;;;;;;0.00;0.00;;;;;7.93;100.00;98701.88;5016738;28;45336;-73
2021/12/10 02:55:50;;;;;;;;;0.00;0.00;;;;;8.00;100.00;98701.16;5015955;28;45700;-73
2021/12/10 02:58:16;;;;;;;;;1.00;0.00;;;;;8.03;100.00;98689.25;5016905;28;45697;-75
2021/12/10 03:00:49;;;;;;;;;0.00;0.00;;;;;8.08;100.00;98689.31;4998979;28;45370;-75
2021/12/10 03:03:15;;;;;;;;;0.00;0.00;;;;;8.09;100.00;98690.19;5017175;28;45330;-74
2021/12/10 03:05:40;;;;;;;;;0.00;0.00;;;;;8.09;100.00;98692.75;5016215;28;45449;-74
2021/12/10 03:08:06;;;;;;;;;0.00;0.00;;;;;8.10;100.00;98686.78;5016152;28;45201;-74
2021/12/10 03:10:33;;;;;;;;;0.00;0.00;;;;;8.04;100.00;98680.63;5015255;28;45363;-73
2021/12/10 03:12:59;;;;;;;;;0.00;0.00;;;;;8.09;100.00;98687.59;5016212;28;45259;-73
2021/12/10 03:15:28;;;;;;;;;1.00;1.00;;;;;8.06;100.00;98686.69;5016360;28;45676;-75
2021/12/10 03:17:55;;;;;;;;;1.00;0.00;;;;;8.09;100.00;98687.59;5016018;28;45413;-74
2021/12/10 03:20:24;;;;;;;;;0.00;0.00;;;;;8.15;100.00;98690.31;5016379;28;45402;-75
2021/12/10 03:22:50;;;;;;;;;0.00;0.00;;;;;8.17;100.00;98701.50;5016544;28;45554;-73
2021/12/10 03:25:17;;;;;;;;;0.00;0.00;;;;;8.15;100.00;98683.44;5016322;28;46448;-73
2021/12/10 03:27:44;;;;;;;;;0.00;0.00;;;;;8.14;100.00;98684.28;5016461;28;45375;-73
2021/12/10 03:30:13;;;;;;;;;1.00;0.00;;;;;8.13;100.00;98690.28;5015945;28;45335;-73
2021/12/10 03:32:40;;;;;;;;;0.00;0.00;;;;;8.14;100.00;98691.16;5016248;28;45256;-73
2021/12/10 03:35:20;;;;;;;;;0.00;0.00;;;;;8.15;100.00;98696.34;5015502;28;45407;-73
2021/12/10 03:37:46;;;;;;;;;0.00;0.00;;;;;8.14;100.00;98696.31;5016212;28;45267;-73
2021/12/10 03:40:14;;;;;;;;;0.00;0.00;;;;;8.16;100.00;98702.34;5016223;28;45445;-73
2021/12/10 03:42:40;;;;;;;;;0.00;0.00;;;;;8.15;100.00;98704.06;5022280;28;45245;-74
2021/12/10 03:45:08;;;;;;;;;1.00;1.00;;;;;8.17;100.00;98698.94;5021932;28;46076;-74
2021/12/10 03:47:34;;;;;;;;;0.00;0.00;;;;;8.06;100.00;98686.69;5022332;28;45683;-73
2021/12/10 03:50:00;;;;;;;;;4.00;1.00;;;;;8.10;100.00;98700.50;5022357;28;45316;-73
2021/12/10 03:52:26;;;;;;;;;0.00;0.00;;;;;8.19;100.00;98707.56;5022763;28;45542;-73
2021/12/10 03:54:54;;;;;;;;;0.00;0.00;;;;;8.23;100.00;98713.66;5022184;28;46101;-76
2021/12/10 03:57:19;;;;;;;;;0.00;0.00;;;;;8.25;100.00;98709.41;5022254;28;45423;-74
2021/12/10 03:59:45;;;;;;;;;0.00;0.00;;;;;8.25;100.00;98720.59;5004761;28;45459;-74
2021/12/10 04:02:12;;;;;;;;;0.00;0.00;;;;;8.24;100.00;98707.66;5022452;28;45549;-73
2021/12/10 04:04:42;;;;;;;;;2.00;0.00;;;;;8.32;100.00;98711.25;5022290;28;46277;-74
2021/12/10 04:07:12;;;;;;;;;0.75;0.00;;;;;8.33;100.00;98716.47;5022093;28;45333;-74
2021/12/10 04:09:40;;;;;;;;;0.00;0.00;;;;;8.34;100.00;98712.16;5022381;28;45392;-74
2021/12/10 04:12:07;;;;;;;;;1.75;0.50;;;;;8.31;100.00;98709.53;5022196;28;45339;-75
2021/12/10 04:14:33;;;;;;;;;0.25;0.00;;;;;8.38;100.00;98721.72;5004107;28;45821;-74
2021/12/10 04:16:59;;;;;;;;;1.00;0.75;;;;;8.39;100.00;98707.09;5003962;28;45278;-73
2021/12/10 04:19:30;;;;;;;;;2.50;2.00;;;;;8.43;100.00;98714.06;5022201;28;45352;-74
2021/12/10 04:21:58;;;;;;;;;2.75;1.25;;;;;8.39;100.00;98696.78;5022173;28;45234;-74
2021/12/10 04:24:27;;;;;;;;;1.00;1.00;;;;;8.51;100.00;98713.41;5021889;28;45392;-74
2021/12/10 04:26:53;;;;;;;;;1.00;1.00;;;;;8.53;100.00;98710.84;5021611;28;45382;-74
2021/12/10 04:29:20;;;;;;;;;2.00;1.00;;;;;8.55;100.00;98710.88;5022069;28;45430;-74
2021/12/10 04:31:51;;;;;;;;;2.00;1.00;;;;;8.58;100.00;98716.97;5022525;28;45293;-74
2021/12/10 04:34:17;;;;;;;;;3.50;2.25;;;;;8.60;100.00;98717.84;5021917;28;46148;-74
2021/12/10 04:36:43;;;;;;;;;2.00;1.00;;;;;8.63;100.00;98719.63;5022193;28;45315;-75
2021/12/10 04:39:09;;;;;;;;;2.00;2.00;;;;;8.66;100.00;98723.13;5021862;28;45378;-75
2021/12/10 04:41:35;;;;;;;;;4.00;2.00;;;;;8.65;100.00;98726.56;5022268;28;45425;-74
2021/12/10 04:44:01;;;;;;;;;1.00;1.00;;;;;8.62;100.00;98731.66;5021604;28;46023;-76
2021/12/10 04:46:27;;;;;;;;;3.00;2.00;;;;;8.73;100.00;98730.97;5021765;28;45339;-74
2021/12/10 04:49:12;;;;;;;;;2.75;2.00;;;;;8.77;100.00;98718.16;5021515;28;45316;-74
2021/12/10 04:51:48;;;;;;;;;2.00;2.00;;;;;8.71;100.00;98712.91;5022101;28;45245;-73
2021/12/10 04:54:15;;;;;;;;;1.00;1.00;;;;;8.83;100.00;98730.31;5018739;28;46207;-73
2021/12/10 04:56:41;;;;;;;;;3.50;2.50;;;;;8.84;100.00;98737.22;5017977;28;45911;-74
2021/12/10 04:59:10;;;;;;;;;5.50;3.00;;;;;8.81;100.00;98727.72;5000410;28;45430;-73
2021/12/10 05:01:37;;;;;;;;;2.75;2.75;;;;;8.92;100.00;98751.09;5018599;28;45229;-73
2021/12/10 05:04:06;;;;;;;;;5.75;2.25;;;;;8.90;100.00;98734.75;5017886;28;45248;-73
2021/12/10 05:06:33;;;;;;;;;3.50;2.50;;;;;8.85;100.00;98727.78;5017930;28;45831;-74
2021/12/10 05:08:58;;;;;;;;;5.00;3.25;;;;;8.94;100.00;98754.59;5018142;28;45493;-75
2021/12/10 05:11:24;;;;;;;;;4.00;2.75;;;;;8.90;100.00;98762.25;5018404;28;45528;-74
2021/12/10 05:13:50;;;;;;;;;2.50;2.00;;;;;8.91;100.00;98757.09;5017766;28;46094;-73
2021/12/10 05:16:25;;;;;;;;;3.50;3.50;;;;;8.89;100.00;98758.81;5018223;28;45232;-73
2021/12/10 05:18:58;;;;;;;;;3.75;0.75;;;;;8.93;100.00;98765.75;5000028;28;45345;-74
2021/12/10 05:21:29;;;;;;;;;2.00;1.25;;;;;8.94;100.00;98780.41;5018247;28;45335;-73
2021/12/10 05:23:55;;;;;;;;;2.00;2.00;;;;;8.93;100.00;98776.06;5017577;28;45364;-73
2021/12/10 05:26:21;;;;;;;;;4.50;1.25;;;;;8.98;100.00;98789.06;4999801;28;45393;-73
2021/12/10 05:28:46;;;;;;;;;5.25;2.75;;;;;8.95;100.00;98778.72;5016467;28;45614;-73
2021/12/10 05:31:13;;;;;;;;;4.00;2.00;;;;;9.02;100.00;98793.44;5000599;28;45412;-73
2021/12/10 05:33:39;;;;;;;;;2.00;1.50;;;;;9.02;100.00;98803.78;5017579;28;46156;-72
2021/12/10 05:36:05;;;;;;;;;8.50;2.50;;;;;8.99;100.00;98790.81;4999394;28;45394;-72
2021/12/10 05:38:32;;;;;;;;;5.00;1.00;;;;;8.97;100.00;98795.06;4999845;28;45264;-72
2021/12/10 05:40:59;;;;;;;;;1.00;0.50;;;;;9.00;100.00;98812.34;5017762;28;45306;-72
2021/12/10 05:43:25;;;;;;;;;0.75;0.75;;;;;8.99;100.00;98806.28;5017486;28;45439;-72
2021/12/10 05:45:52;;;;;;;;;3.75;2.00;;;;;8.90;100.00;98819.03;4999501;28;45755;-72
2021/12/10 05:48:19;;;;;;;;;4.25;1.00;;;;;8.88;100.00;98807.81;5016392;28;45474;-73
2021/12/10 05:50:46;;;;;;;;;2.00;2.00;;;;;8.86;100.00;98827.53;5017842;28;45437;-72
2021/12/10 05:53:12;;;;;;;;;1.75;1.00;;;;;8.88;100.00;98815.53;5017381;28;45473;-72
2021/12/10 05:55:40;;;;;;;;;1.00;1.00;;;;;8.88;100.00;98831.03;5017210;28;45343;-72
2021/12/10 05:58:07;;;;;;;;;2.25;2.25;;;;;8.77;100.00;98823.94;5017075;28;45320;-72
2021/12/10 06:00:41;;;;;;;;;2.00;1.00;;;;;8.85;100.00;98821.53;5017544;28;45310;-73
2021/12/10 06:03:07;;;;;;;;;1.00;1.00;;;;;8.83;100.00;98831.81;5017092;28;46469;-72
2021/12/10 06:05:34;;;;;;;;;3.25;2.00;;;;;8.80;100.00;98847.25;5016625;28;45804;-72
2021/12/10 06:08:00;;;;;;;;;8.00;2.25;;;;;8.83;100.00;98855.06;5017003;28;45423;-72
2021/12/10 06:10:26;;;;;;;;;2.00;1.25;;;;;8.76;100.00;98849.72;5017494;28;45563;-72
2021/12/10 06:12:53;;;;;;;;;0.00;0.00;;;;;8.80;100.00;98860.13;5016690;28;45407;-71
2021/12/10 06:15:20;;;;;;;;;1.50;1.00;;;;;8.76;100.00;98865.22;5016865;28;45302;-71
2021/12/10 06:17:47;;;;;;;;;1.00;1.00;;;;;8.70;100.00;98883.13;5017109;28;45368;-72
2021/12/10 06:20:17;;;;;;;;;2.00;2.00;;;;;8.71;100.00;98869.38;5016668;28;45503;-72
2021/12/10 06:22:43;;;;;;;;;2.50;1.50;;;;;8.67;100.00;98853.88;5016035;28;46080;-72
2021/12/10 06:25:09;;;;;;;;;1.00;1.00;;;;;8.72;100.00;98882.34;5016202;28;45373;-72
2021/12/10 06:27:38;;;;;;;;;1.00;1.00;;;;;8.73;100.00;98876.34;5010765;28;45283;-72
2021/12/10 06:30:05;;;;;;;;;2.00;1.75;;;;;8.72;100.00;98882.34;5016214;28;45481;-72
2021/12/10 06:32:30;;;;;;;;;2.75;2.25;;;;;8.70;100.00;98886.59;5015654;28;45467;-73
2021/12/10 06:34:56;;;;;;;;;3.00;2.00;;;;;8.64;100.00;98882.19;5015725;28;45507;-75
2021/12/10 06:37:22;;;;;;;;;1.75;1.25;;;;;8.67;100.00;98895.16;5016507;28;45495;-75
2021/12/10 06:39:48;;;;;;;;;0.00;0.00;;;;;8.72;100.00;98886.63;5016447;28;45435;-76
2021/12/10 06:42:13;;;;;;;;;3.25;3.25;;;;;8.74;100.00;98900.41;5015977;28;45390;-73
2021/12/10 06:44:39;;;;;;;;;1.00;1.00;;;;;8.74;100.00;98908.16;5006143;28;45329;-75
2021/12/10 06:47:06;;;;;;;;;2.50;2.50;;;;;8.72;100.00;98917.56;5015713;28;45305;-75
2021/12/10 06:49:33;;;;;;;;;3.00;1.00;;;;;8.70;100.00;98939.88;5016017;28;45368;-74
2021/12/10 06:52:03;;;;;;;;;2.00;2.00;;;;;8.61;100.00;98951.75;5015637;28;46266;-75
2021/12/10 06:54:29;;;;;;;;;0.00;0.00;;;;;8.63;100.00;98954.38;5015536;28;45819;-74
2021/12/10 06:56:56;;;;;;;;;1.75;1.75;;;;;8.58;100.00;98961.13;5015554;28;45392;-75
2021/12/10 06:59:24;;;;;;;;;3.75;0.50;;;;;8.54;100.00;98969.63;5015920;28;45563;-74
2021/12/10 07:01:50;;;;;;;;;1.25;0.00;;;;;8.51;100.00;98957.53;5014977;28;45424;-76
2021/12/10 07:04:16;;;;;;;;;1.00;1.00;;;;;8.49;100.00;99009.09;5016874;28;45739;-78
2021/12/10 07:06:44;;;;;;;;;0.00;0.00;;;;;8.44;100.00;98994.31;5016025;28;45364;-76
2021/12/10 07:09:19;;;;;;;;;2.00;0.50;;;;;8.40;100.00;98989.91;5016616;28;45315;-76
2021/12/10 07:11:47;;;;;;;;;0.00;0.00;;;;;8.44;100.00;98999.47;5016407;28;46238;-78
2021/12/10 07:14:12;;;;;;;;;3.00;2.00;;;;;8.44;100.00;99014.94;5015248;28;45899;-74
2021/12/10 07:16:38;;;;;;;;;0.00;0.00;;;;;8.37;100.00;99004.47;5014410;28;45432;-78
2021/12/10 07:19:06;;;;;;;;;1.00;0.00;;;;;8.41;100.00;99007.13;5015924;28;45368;-76
2021/12/10 07:21:34;;;;;;;;;2.00;1.00;;;;;8.39;100.00;99032.00;5015025;28;46041;-74
2021/12/10 07:24:04;;;;;;;;;0.00;0.00;;;;;8.41;100.00;99035.50;5015031;28;45499;-74
2021/12/10 07:26:30;;;;;;;;;0.50;0.50;;;;;8.39;100.00;99061.25;5016528;28;45453;-78
2021/12/10 07:28:57;;;;;;;;;0.75;0.00;;;;;8.34;100.00;99037.94;5014572;28;45525;-77
2021/12/10 07:31:23;;;;;;;;;0.75;0.00;;;;;8.32;100.00;99052.47;5014907;28;45459;-79
2021/12/10 07:33:49;;;;;;;;;0.00;0.00;;;;;8.31;100.00;99050.72;5015013;28;45518;-82
2021/12/10 07:36:15;;;;;;;;;2.00;0.00;;;;;8.31;100.00;99057.63;5014760;28;45451;-80
2021/12/10 07:38:42;;;;;;;;;0.00;0.00;;;;;8.24;100.00;99050.53;5015032;28;46054;-79
2021/12/10 07:41:08;;;;;;;;;0.50;0.00;;;;;8.24;100.00;99091.78;4996321;28;46050;-75
2021/12/10 07:43:37;;;;;;;;;0.00;0.00;;;;;8.23;100.00;99079.72;5015067;28;45464;-76
2021/12/10 07:46:07;;;;;;;;;0.00;0.00;;;;;8.19;100.00;99066.78;5013473;28;45304;-80
2021/12/10 07:48:35;;;;;;;;;0.00;0.00;;;;;8.13;100.00;99097.53;4997569;28;45385;-77
2021/12/10 07:51:09;;;;;;;;;2.00;0.25;;;;;8.11;100.00;99098.31;5009432;28;45787;-75
2021/12/10 07:53:37;;;;;;;;;0.00;0.00;;;;;8.04;100.00;99097.28;5014081;28;45829;-75
2021/12/10 07:56:06;;;;;;;;;0.75;0.75;;;;;8.05;100.00;99099.03;5014394;28;45463;-72
2021/12/10 07:58:33;;;;;;;;;0.00;0.00;;;;;8.09;100.00;99094.81;5012717;28;45393;-77
2021/12/10 08:01:04;;;;;;;;;0.00;0.00;;;;;8.15;100.00;99133.69;5015240;28;46072;-72
2021/12/10 08:03:29;;;;;;;;;0.00;0.00;;;;;8.17;100.00;99122.56;5014544;28;45284;-72
2021/12/10 08:05:55;;;;;;;;;2.00;0.00;;;;;8.16;100.00;99144.03;5014324;28;45329;-73
2021/12/10 08:08:21;;;;;;;;;0.75;0.75;;;;;8.11;100.00;99137.84;5015811;28;45329;-71
2021/12/10 08:10:48;;;;;;;;;0.00;0.00;;;;;8.09;100.00;99126.66;5013411;28;45612;-71
2021/12/10 08:13:16;;;;;;;;;1.75;1.50;;;;;8.00;100.00;99129.84;5014364;28;45446;-74
2021/12/10 08:15:41;;;;;;;;;1.75;1.75;;;;;8.09;100.00;99142.13;5013791;28;45577;-75
2021/12/10 08:18:07;;;;;;;;;1.00;1.00;;;;;8.07;100.00;99154.09;5014856;28;45583;-78
2021/12/10 08:20:34;;;;;;;;;1.00;1.00;;;;;8.14;100.00;99166.31;5015205;28;45219;-78
2021/12/10 08:23:01;;;;;;;;;1.25;0.00;;;;;8.09;100.00;99160.16;5014874;28;45465;-77
2021/12/10 08:25:27;;;;;;;;;2.75;0.00;;;;;8.12;100.00;99193.72;5015517;28;45344;-77
2021/12/10 08:27:55;;;;;;;;;0.00;0.00;;;;;8.06;100.00;99197.00;5016533;28;45606;-75
2021/12/10 08:30:23;;;;;;;;;0.25;0.00;;;;;7.97;100.00;99176.13;5000880;28;47320;-75
2021/12/10 08:32:53;;;;;;;;;0.00;0.00;;;;;8.11;100.00;99194.56;5018569;28;45489;-76
2021/12/10 08:35:20;;;;;;;;;2.25;0.00;;;;;8.06;100.00;99191.84;5019283;28;46025;-75
2021/12/10 08:37:47;;;;;;;;;1.00;1.00;;;;;8.09;100.00;99197.94;5017350;28;45510;-76
2021/12/10 08:40:17;;;;;;;;;3.00;0.00;;;;;8.14;100.00;99235.91;5018200;28;45253;-76
2021/12/10 08:42:43;;;;;;;;;1.00;0.00;;;;;8.13;100.00;99230.72;5018221;28;45743;-74
2021/12/10 08:45:12;;;;;;;;;0.00;0.00;;;;;8.09;100.00;99226.28;4999757;28;45800;-75
2021/12/10 08:47:38;;;;;;;;;0.00;0.00;;;;;8.15;100.00;99234.22;5018559;28;45339;-77
2021/12/10 08:50:07;;;;;;;;;0.50;0.50;;;;;8.08;100.00;99235.72;5017546;28;47449;-75
2021/12/10 08:52:33;;;;;;;;;0.00;0.00;;;;;8.05;100.00;99254.53;5018045;28;45743;-75
2021/12/10 08:54:59;;;;;;;;;2.50;1.00;;;;;8.01;100.00;99244.97;5017670;28;46062;-74
2021/12/10 08:57:26;;;;;;;;;1.00;1.00;;;;;7.91;100.00;99237.81;5017792;28;45608;-74
2021/12/10 08:59:53;;;;;;;;;1.25;1.25;;;;;7.99;100.00;99264.69;5017155;28;46320;-74
2021/12/10 09:02:19;;;;;;;;;0.00;0.00;;;;;7.96;100.00;99269.72;5017164;28;45466;-72
2021/12/10 09:04:45;;;;;;;;;1.25;1.00;;;;;7.95;100.00;99255.09;5018024;28;45399;-74
2021/12/10 09:07:14;;;;;;;;;1.00;1.00;;;;;7.95;100.00;99260.25;5016933;28;45566;-73
2021/12/10 09:09:43;;;;;;;;;2.00;1.00;;;;;7.94;100.00;99267.94;5016693;28;45672;-72
2021/12/10 09:12:22;;;;;;;;;1.50;1.50;;;;;7.88;100.00;99266.91;4998567;28;45267;-73
2021/12/10 09:14:52;;;;;;;;;1.00;0.00;;;;;8.00;100.00;99289.63;5017533;28;45396;-73
2021/12/10 09:17:26;;;;;;;;;1.25;1.25;;;;;8.02;100.00;99279.34;5018054;28;45594;-73
2021/12/10 09:19:55;;;;;;;;;2.00;1.00;;;;;7.99;100.00;99285.28;5017664;28;46492;-76
2021/12/10 09:22:21;;;;;;;;;2.00;1.00;;;;;8.06;100.00;99279.50;5017288;28;45509;-76
2021/12/10 09:24:47;;;;;;;;;1.00;1.00;;;;;8.14;100.00;99296.91;5017286;28;45507;-76
2021/12/10 09:27:13;;;;;;;;;1.00;1.00;;;;;8.15;100.00;99304.69;5017810;28;45323;-74
2021/12/10 09:29:43;;;;;;;;;3.00;1.75;;;;;8.20;100.00;99307.38;5016888;28;45639;-74
2021/12/10 09:32:13;;;;;;;;;2.25;2.25;;;;;8.24;100.00;99308.34;5017430;28;45786;-74
2021/12/10 09:34:39;;;;;;;;;2.75;1.50;;;;;8.19;100.00;99316.84;5017233;28;46156;-74
2021/12/10 09:37:06;;;;;;;;;0.75;0.75;;;;;8.28;100.00;99326.53;5017240;28;45565;-74
2021/12/10 09:39:32;;;;;;;;;2.75;2.00;;;;;8.23;100.00;99327.22;5016490;28;45430;-75
2021/12/10 09:41:59;;;;;;;;;1.00;1.00;;;;;8.20;100.00;99346.94;4999887;28;45394;-81
2021/12/10 09:44:25;;;;;;;;;5.00;2.00;;;;;8.20;100.00;99334.06;5018626;28;45288;-79
2021/12/10 09:46:52;;;;;;;;;3.25;3.00;;;;;8.17;100.00;99353.69;5018821;28;45345;-79
2021/12/10 09:49:23;;;;;;;;;1.25;1.25;;;;;8.10;100.00;99333.72;5023926;28;46010;-87
2021/12/10 09:51:58;;;;;;;;;2.25;1.50;;;;;8.14;100.00;99351.91;5004524;28;45281;-84
2021/12/10 09:54:28;;;;;;;;;6.25;1.00;;;;;8.12;100.00;99347.53;5018489;28;45495;-74
2021/12/10 09:57:01;;;;;;;;;3.00;2.00;;;;;8.28;100.00;99362.63;5016879;28;45519;-73
2021/12/10 09:59:27;;;;;;;;;2.50;2.00;;;;;8.30;100.00;99363.56;5017425;28;45988;-73
2021/12/10 10:01:54;;;;;;;;;4.50;2.00;;;;;8.41;100.00;99360.44;5017147;28;46005;-73
2021/12/10 10:04:23;;;;;;;;;1.25;1.25;;;;;8.44;100.00;99382.03;5016395;28;45356;-74
2021/12/10 10:06:56;;;;;;;;;2.00;1.75;;;;;8.45;100.00;99390.66;5005002;28;45603;-73
2021/12/10 10:09:24;;;;;;;;;1.25;0.25;;;;;8.31;100.00;99395.41;5016748;28;46016;-75
2021/12/10 10:12:00;;;;;;;;;3.00;1.50;;;;;8.19;100.00;99389.03;5018969;28;45616;-72
2021/12/10 10:14:26;;;;;;;;;2.00;0.75;;;;;8.05;100.00;99383.41;5016854;28;45257;-76
2021/12/10 10:16:52;;;;;;;;;2.75;1.00;;;;;8.02;100.00;99395.34;5016130;28;45442;-75
2021/12/10 10:19:19;;;;;;;;;1.00;1.00;;;;;7.99;100.00;99397.84;5016865;28;45347;-76
2021/12/10 10:21:49;;;;;;;;;1.00;1.00;;;;;7.92;100.00;99391.59;5015850;28;45817;-73
2021/12/10 10:24:16;;;;;;;;;3.00;1.00;;;;;7.95;100.00;99401.13;5006199;28;45404;-75
2021/12/10 10:26:48;;;;;;;;;2.25;2.25;;;;;8.00;100.00;99404.72;5016629;28;45519;-76
2021/12/10 10:29:19;;;;;;;;;1.00;0.50;;;;;8.08;100.00;99418.75;5016270;28;46077;-73
2021/12/10 10:31:55;;;;;;;;;1.00;1.00;;;;;8.08;100.00;99443.63;5016436;28;45261;-73
2021/12/10 10:34:24;;;;;;;;;2.75;2.00;;;;;8.11;100.00;99433.44;5035719;28;45269;-74
2021/12/10 10:36:51;;;;;;;;;5.00;1.25;;;;;8.05;100.00;99409.19;5016352;28;45431;-74
2021/12/10 10:39:25;;;;;;;;;2.75;0.75;;;;;8.19;100.00;99450.91;4996662;28;46833;-75
2021/12/10 10:41:54;;;;;;;;;2.00;0.00;;;;;8.21;100.00;99422.59;5013975;28;45354;-76
2021/12/10 10:44:22;;;;;;;;;3.00;1.00;;;;;8.30;100.00;99437.47;5015223;28;45362;-74
2021/12/10 10:46:49;;;;;;;;;4.00;3.00;;;;;8.39;100.00;99447.19;5016263;28;45427;-76
2021/12/10 10:49:33;;;;;;;;;1.00;1.00;;;;;8.40;100.00;99465.31;5016203;28;45328;-75
2021/12/10 10:52:15;;;;;;;;;2.25;1.25;;;;;8.48;100.00;99440.66;5016093;28;45535;-74
2021/12/10 10:54:42;;;;;;;;;2.50;1.00;;;;;8.46;100.00;99438.84;5014954;28;45394;-75
2021/12/10 10:57:25;;;;;;;;;1.00;1.00;;;;;8.51;100.00;99456.25;5016536;28;45200;-76
2021/12/10 10:59:57;;;;;;;;;2.00;1.00;;;;;8.51;100.00;99447.59;5015978;28;46615;-77
2021/12/10 11:02:27;;;;;;;;;1.75;0.00;;;;;8.53;100.00;99466.59;5016274;28;45741;-76
2021/12/10 11:04:53;;;;;;;;;1.50;1.00;;;;;8.51;100.00;99451.06;5015859;28;45226;-74
2021/12/10 11:07:26;;;;;;;;;2.50;1.50;;;;;8.54;100.00;99460.59;5016191;28;45273;-73
2021/12/10 11:09:59;;;;;;;;;1.50;1.50;;;;;8.48;100.00;99465.56;5015579;28;46076;-73
2021/12/10 11:12:38;;;;;;;;;1.50;1.50;;;;;8.49;100.00;99491.41;5015878;28;45464;-74
2021/12/10 11:15:12;;;;;;;;;1.00;1.00;;;;;8.51;100.00;99474.28;5015609;28;45226;-74
2021/12/10 11:17:43;;;;;;;;;1.50;1.25;;;;;8.58;100.00;99480.53;5016045;28;45329;-77
2021/12/10 11:20:23;;;;;;;;;1.00;0.00;;;;;8.63;100.00;99486.69;5031241;28;45487;-77
2021/12/10 11:22:56;;;;;;;;;1.50;1.00;;;;;8.66;100.00;99478.16;5014329;28;45337;-74
2021/12/10 11:25:40;;;;;;;;;3.25;2.00;;;;;8.75;100.00;99493.06;5014842;28;45450;-73
2021/12/10 11:28:15;;;;;;;;;1.00;1.00;;;;;8.81;100.00;99504.44;5015372;28;45531;-73
2021/12/10 11:30:48;;;;;;;;;3.50;1.50;;;;;8.88;100.00;99513.25;5015400;28;45479;-73
2021/12/10 11:33:19;;;;;;;;;2.00;2.00;;;;;8.83;100.00;99509.66;5014603;28;45418;-76
2021/12/10 11:35:52;;;;;;;;;1.25;0.75;;;;;8.88;100.00;99499.47;5016013;28;45553;-78
2021/12/10 11:38:19;;;;;;;;;0.25;0.00;;;;;8.90;100.00;99516.75;5017335;28;45338;-91
2021/12/10 11:40:50;;;;;;;;;2.00;2.00;;;;;8.82;100.00;99500.16;5017331;28;46411;-79
2021/12/10 11:46:29;;;;;;;;;2.00;2.00;;;;;8.92;100.00;99520.25;5020832;28;45273;-84
2021/12/10 11:49:21;;;;;;;;;6.25;1.00;;;;;8.90;100.00;99521.03;5020164;28;45508;-85
2021/12/10 11:52:06;;;;;;;;;1.25;1.25;;;;;8.88;100.00;99523.59;5014543;28;45474;-76
2021/12/10 11:54:40;;;;;;;;;2.75;1.50;;;;;8.91;100.00;99530.53;4997686;28;46074;-75